createdAt,value
2017-07-04T00:00:14.075Z,16.60
2017-07-04T00:02:42.503Z,16.60
2017-07-04T00:05:11.118Z,16.50
2017-07-04T00:07:40.307Z,16.50
2017-07-04T00:10:09.532Z,16.50
2017-07-04T00:12:38.821Z,16.40
2017-07-04T00:15:08.048Z,16.50
2017-07-04T00:17:36.509Z,16.40
2017-07-04T00:20:04.933Z,16.40
2017-07-04T00:22:33.351Z,16.40
2017-07-04T00:25:02.218Z,16.30
2017-07-04T00:27:30.642Z,16.20
2017-07-04T00:29:59.084Z,16.20
2017-07-04T00:32:27.360Z,16.30
2017-07-04T00:34:55.775Z,16.30
2017-07-04T00:37:25.183Z,16.30
2017-07-04T00:39:54.391Z,16.20
2017-07-04T00:42:22.136Z,16.20
2017-07-04T00:44:51.361Z,16.00
2017-07-04T00:47:19.810Z,16.00
2017-07-04T00:49:49.003Z,16.00
2017-07-04T00:52:17.500Z,16.00
2017-07-04T00:54:46.700Z,15.80
2017-07-04T00:57:15.887Z,15.80
2017-07-04T00:59:44.341Z,15.70
2017-07-04T01:02:12.747Z,15.50
2017-07-04T01:04:40.848Z,15.50
2017-07-04T01:07:09.286Z,15.40
2017-07-04T01:09:37.710Z,15.30
2017-07-04T01:12:06.147Z,15.20
2017-07-04T01:14:34.243Z,15.20
2017-07-04T01:17:03.466Z,15.10
2017-07-04T01:19:31.889Z,15.10
2017-07-04T01:22:00.327Z,15.20
2017-07-04T01:24:28.950Z,15.40
2017-07-04T01:26:58.406Z,15.40
2017-07-04T01:29:27.619Z,15.40
2017-07-04T01:31:56.063Z,15.30
2017-07-04T01:34:24.480Z,15.40
2017-07-04T01:36:52.899Z,15.40
2017-07-04T01:39:21.345Z,15.40
2017-07-04T01:41:50.481Z,15.40
2017-07-04T01:44:18.903Z,15.30
2017-07-04T01:46:48.090Z,15.40
2017-07-04T01:49:16.515Z,15.40
2017-07-04T01:51:44.961Z,15.50
2017-07-04T01:54:14.168Z,15.60
2017-07-04T01:56:43.355Z,15.70
2017-07-04T01:59:11.822Z,15.60
2017-07-04T02:01:40.271Z,15.70
2017-07-04T02:04:08.015Z,15.70
2017-07-04T02:06:36.450Z,15.70
2017-07-04T02:09:04.180Z,15.70
2017-07-04T02:11:32.628Z,15.70
2017-07-04T02:14:01.828Z,15.80
2017-07-04T02:16:30.328Z,15.80
2017-07-04T02:18:58.769Z,15.80
2017-07-04T02:21:27.183Z,15.80
2017-07-04T02:23:55.619Z,15.80
2017-07-04T02:26:24.054Z,15.80
2017-07-04T02:28:52.495Z,15.80
2017-07-04T02:31:21.108Z,15.80
2017-07-04T02:33:50.292Z,15.80
2017-07-04T02:36:18.778Z,15.80
2017-07-04T02:38:47.963Z,15.80
2017-07-04T02:41:16.387Z,15.80
2017-07-04T02:43:44.648Z,15.90
2017-07-04T02:46:13.832Z,15.90
2017-07-04T02:48:42.529Z,15.90
2017-07-04T02:51:11.860Z,16.00
2017-07-04T02:53:40.315Z,15.90
2017-07-04T02:56:08.779Z,15.90
2017-07-04T02:58:37.198Z,15.90
2017-07-04T03:01:05.623Z,15.90
2017-07-04T03:03:34.064Z,15.80
2017-07-04T03:06:02.491Z,15.80
2017-07-04T03:08:30.935Z,15.80
2017-07-04T03:10:59.354Z,15.80
2017-07-04T03:13:27.079Z,15.90
2017-07-04T03:15:56.592Z,15.80
2017-07-04T03:18:25.023Z,15.80
2017-07-04T03:20:54.229Z,15.70
2017-07-04T03:23:23.414Z,15.70
2017-07-04T03:25:51.850Z,15.60
2017-07-04T03:28:20.302Z,15.60
2017-07-04T03:30:48.732Z,15.60
2017-07-04T03:33:17.276Z,15.50
2017-07-04T03:35:45.720Z,15.50
2017-07-04T03:38:13.815Z,15.50
2017-07-04T03:40:43.025Z,15.40
2017-07-04T03:43:12.145Z,15.40
2017-07-04T03:45:40.571Z,15.30
2017-07-04T03:48:09.046Z,15.20
2017-07-04T03:50:37.164Z,15.20
2017-07-04T03:53:05.587Z,15.20
2017-07-04T03:55:34.029Z,15.20
2017-07-04T03:58:02.513Z,15.20
2017-07-04T04:00:31.159Z,15.20
2017-07-04T04:03:00.346Z,15.10
2017-07-04T04:05:28.795Z,15.10
2017-07-04T04:07:57.357Z,15.00
2017-07-04T04:10:26.535Z,15.20
2017-07-04T04:12:55.024Z,15.20
2017-07-04T04:15:24.223Z,15.30
2017-07-04T04:17:53.430Z,15.30
2017-07-04T04:20:23.517Z,15.40
2017-07-04T04:22:51.943Z,15.40
2017-07-04T04:25:20.367Z,15.50
2017-07-04T04:27:48.787Z,15.60
2017-07-04T04:30:17.986Z,15.70
2017-07-04T04:32:47.181Z,15.90
2017-07-04T04:35:16.362Z,15.90
2017-07-04T04:37:45.198Z,16.00
2017-07-04T04:40:13.624Z,16.00
2017-07-04T04:42:42.073Z,16.00
2017-07-04T04:45:10.756Z,16.00
2017-07-04T04:47:39.182Z,16.00
2017-07-04T04:50:06.923Z,16.10
2017-07-04T04:52:35.486Z,16.10
2017-07-04T04:55:03.934Z,16.20
2017-07-04T04:57:33.254Z,16.30
2017-07-04T05:00:01.697Z,16.30
2017-07-04T05:02:30.196Z,16.50
2017-07-04T05:04:59.519Z,16.60
2017-07-04T05:07:27.964Z,16.70
2017-07-04T05:09:56.489Z,16.70
2017-07-04T05:12:25.195Z,16.90
2017-07-04T05:14:54.022Z,17.00
2017-07-04T05:17:22.466Z,16.90
2017-07-04T05:19:50.891Z,17.10
2017-07-04T05:22:19.364Z,17.20
2017-07-04T05:24:47.900Z,17.40
2017-07-04T05:27:16.336Z,17.40
2017-07-04T05:29:44.851Z,17.60
2017-07-04T05:32:13.270Z,17.60
2017-07-04T05:34:42.112Z,17.70
2017-07-04T05:37:10.796Z,17.80
2017-07-04T05:39:39.730Z,17.80
2017-07-04T05:42:08.179Z,17.80
2017-07-04T05:44:37.491Z,18.00
2017-07-04T05:47:05.979Z,18.20
2017-07-04T05:49:34.420Z,18.10
2017-07-04T05:52:02.915Z,18.20
2017-07-04T05:54:31.396Z,18.30
2017-07-04T05:56:59.817Z,18.30
2017-07-04T05:59:28.231Z,18.40
2017-07-04T06:01:56.668Z,18.40
2017-07-04T06:04:25.096Z,18.60
2017-07-04T06:06:53.587Z,18.60
2017-07-04T06:09:22.017Z,18.60
2017-07-04T06:11:50.442Z,18.70
2017-07-04T06:14:18.859Z,18.90
2017-07-04T06:16:48.068Z,18.90
2017-07-04T06:19:16.507Z,19.00
2017-07-04T06:21:46.676Z,19.20
2017-07-04T06:24:15.127Z,19.40
2017-07-04T06:26:43.811Z,19.50
2017-07-04T06:29:12.252Z,19.70
2017-07-04T06:31:40.696Z,19.70
2017-07-04T06:34:09.928Z,19.80
2017-07-04T06:36:38.341Z,20.00
2017-07-04T06:39:06.839Z,20.00
2017-07-04T06:41:35.277Z,19.90
2017-07-04T06:44:03.711Z,19.70
2017-07-04T06:46:32.987Z,19.90
2017-07-04T06:49:01.407Z,20.30
2017-07-04T06:51:29.499Z,20.50
2017-07-04T06:53:58.197Z,20.60
2017-07-04T06:56:27.028Z,20.80
2017-07-04T06:58:55.670Z,20.80
2017-07-04T07:01:24.100Z,20.40
2017-07-04T07:03:52.794Z,20.50
2017-07-04T07:06:21.991Z,20.60
2017-07-04T07:08:50.860Z,20.50
2017-07-04T07:11:19.359Z,20.50
2017-07-04T07:13:47.787Z,20.50
2017-07-04T07:16:16.251Z,20.60
2017-07-04T07:18:44.677Z,20.50
2017-07-04T07:21:13.115Z,20.40
2017-07-04T07:23:41.667Z,20.40
2017-07-04T07:26:10.502Z,20.40
2017-07-04T07:28:38.958Z,20.30
2017-07-04T07:31:08.162Z,20.40
2017-07-04T07:33:37.383Z,20.40
2017-07-04T07:36:05.885Z,20.40
2017-07-04T07:38:34.351Z,20.50
2017-07-04T07:41:03.059Z,20.50
2017-07-04T07:43:31.147Z,20.40
2017-07-04T07:45:59.572Z,20.50
2017-07-04T07:48:28.347Z,20.60
2017-07-04T07:50:56.844Z,20.70
2017-07-04T07:53:25.520Z,20.90
2017-07-04T07:55:54.714Z,21.00
2017-07-04T07:58:23.920Z,20.90
2017-07-04T08:00:53.131Z,20.80
2017-07-04T08:03:22.322Z,20.70
2017-07-04T08:05:51.191Z,20.80
2017-07-04T08:08:19.607Z,21.00
2017-07-04T08:10:48.030Z,21.20
2017-07-04T08:13:16.475Z,21.20
2017-07-04T08:15:44.923Z,21.40
2017-07-04T08:18:13.357Z,21.40
2017-07-04T08:20:41.799Z,21.80
2017-07-04T08:23:11.001Z,22.20
2017-07-04T08:25:40.194Z,22.20
2017-07-04T08:28:09.408Z,22.30
2017-07-04T08:30:38.603Z,22.60
2017-07-04T08:33:07.820Z,22.60
2017-07-04T08:35:36.655Z,22.80
2017-07-04T08:38:05.123Z,22.70
2017-07-04T08:40:33.531Z,22.60
2017-07-04T08:43:01.971Z,22.50
2017-07-04T08:45:30.404Z,22.00
2017-07-04T08:47:59.588Z,21.80
2017-07-04T08:50:28.214Z,21.80
2017-07-04T08:52:56.896Z,21.40
2017-07-04T08:55:26.096Z,21.50
2017-07-04T08:57:54.536Z,21.40
2017-07-04T09:00:22.964Z,21.60
2017-07-04T09:02:51.420Z,21.60
2017-07-04T09:05:19.839Z,21.60
2017-07-04T09:07:48.312Z,21.60
2017-07-04T09:10:16.779Z,21.80
2017-07-04T09:12:45.971Z,22.50
2017-07-04T09:15:15.194Z,22.80
2017-07-04T09:17:43.702Z,23.00
2017-07-04T09:20:12.207Z,23.00
2017-07-04T09:22:40.660Z,23.40
2017-07-04T09:25:09.082Z,23.50
2017-07-04T09:27:37.519Z,23.70
2017-07-04T09:30:06.980Z,23.60
2017-07-04T09:32:36.205Z,23.70
2017-07-04T09:35:04.711Z,23.60
2017-07-04T09:37:33.150Z,23.70
2017-07-04T09:40:02.355Z,23.30
2017-07-04T09:42:31.553Z,23.30
2017-07-04T09:45:00.752Z,23.40
2017-07-04T09:47:29.927Z,23.00
2017-07-04T09:49:58.352Z,22.90
2017-07-04T09:52:26.787Z,22.90
2017-07-04T09:54:55.243Z,23.20
2017-07-04T09:57:23.333Z,23.30
2017-07-04T09:59:51.755Z,23.40
2017-07-04T10:02:20.200Z,23.30
2017-07-04T10:04:48.289Z,23.30
2017-07-04T10:07:16.967Z,23.30
2017-07-04T10:09:45.420Z,23.70
2017-07-04T10:12:13.863Z,24.40
2017-07-04T10:14:42.567Z,24.90
2017-07-04T10:17:10.988Z,25.40
2017-07-04T10:19:39.443Z,25.70
2017-07-04T10:22:08.931Z,25.80
2017-07-04T10:24:37.363Z,25.80
2017-07-04T10:27:05.911Z,26.00
2017-07-04T10:29:34.319Z,25.40
2017-07-04T10:32:02.767Z,25.10
2017-07-04T10:34:30.507Z,24.90
2017-07-04T10:36:59.692Z,24.20
2017-07-04T10:39:28.914Z,24.10
2017-07-04T10:41:57.351Z,24.10
2017-07-04T10:44:25.790Z,24.00
2017-07-04T10:46:54.262Z,24.00
2017-07-04T10:49:22.682Z,24.10
2017-07-04T10:51:51.127Z,24.50
2017-07-04T10:54:19.605Z,24.90
2017-07-04T10:56:48.039Z,25.20
2017-07-04T10:59:16.471Z,25.30
2017-07-04T11:01:44.963Z,25.60
2017-07-04T11:04:13.395Z,25.30
2017-07-04T11:06:41.835Z,24.80
2017-07-04T11:09:10.352Z,24.30
2017-07-04T11:11:39.467Z,24.40
2017-07-04T11:14:08.680Z,23.80
2017-07-04T11:16:37.868Z,23.80
2017-07-04T11:19:07.054Z,23.80
2017-07-04T11:21:35.508Z,23.70
2017-07-04T11:24:03.935Z,24.10
2017-07-04T11:26:32.647Z,24.70
2017-07-04T11:29:01.148Z,25.30
2017-07-04T11:31:29.574Z,25.00
2017-07-04T11:33:58.879Z,24.80
2017-07-04T11:36:27.327Z,24.80
2017-07-04T11:38:55.761Z,24.70
2017-07-04T11:41:24.950Z,24.80
2017-07-04T11:43:54.255Z,24.90
2017-07-04T11:46:23.445Z,25.00
2017-07-04T11:48:52.196Z,24.90
2017-07-04T11:51:20.616Z,24.70
2017-07-04T11:53:49.861Z,25.60
2017-07-04T11:56:18.276Z,25.60
2017-07-04T11:58:46.714Z,25.60
2017-07-04T12:01:15.162Z,25.80
2017-07-04T12:03:43.596Z,26.70
2017-07-04T12:06:13.178Z,26.60
2017-07-04T12:08:41.603Z,26.50
2017-07-04T12:11:10.058Z,26.00
2017-07-04T12:13:38.620Z,26.10
2017-07-04T12:16:07.052Z,26.40
2017-07-04T12:18:35.503Z,27.00
2017-07-04T12:21:04.263Z,27.40
2017-07-04T12:23:33.483Z,27.60
2017-07-04T12:26:01.907Z,27.50
2017-07-04T12:28:30.353Z,27.40
2017-07-04T12:30:58.779Z,26.90
2017-07-04T12:33:27.217Z,26.40
2017-07-04T12:35:55.664Z,26.10
2017-07-04T12:38:24.851Z,25.40
2017-07-04T12:40:54.190Z,25.40
2017-07-04T12:43:22.621Z,25.30
2017-07-04T12:45:51.039Z,25.70
2017-07-04T12:48:19.491Z,26.30
2017-07-04T12:50:48.007Z,26.70
2017-07-04T12:53:16.511Z,26.90
2017-07-04T12:55:44.923Z,27.50
2017-07-04T12:58:13.371Z,27.60
2017-07-04T13:00:41.790Z,27.30
2017-07-04T13:03:10.332Z,27.20
2017-07-04T13:05:38.901Z,27.60
2017-07-04T13:08:07.335Z,28.80
2017-07-04T13:10:35.766Z,29.30
2017-07-04T13:13:04.259Z,29.90
2017-07-04T13:15:32.690Z,29.90
2017-07-04T13:18:01.134Z,30.10
2017-07-04T13:20:29.579Z,29.90
2017-07-04T13:22:58.427Z,29.90
2017-07-04T13:25:26.884Z,29.80
2017-07-04T13:27:54.633Z,29.20
2017-07-04T13:30:23.101Z,28.60
2017-07-04T13:32:52.283Z,27.80
2017-07-04T13:35:21.487Z,27.60
2017-07-04T13:37:50.820Z,26.90
2017-07-04T13:40:19.257Z,26.90
2017-07-04T13:42:47.683Z,27.00
2017-07-04T13:45:16.111Z,26.90
2017-07-04T13:47:44.597Z,26.90
2017-07-04T13:50:14.047Z,26.90
2017-07-04T13:52:42.540Z,26.90
2017-07-04T13:55:10.987Z,27.90
2017-07-04T13:57:40.191Z,27.50
2017-07-04T14:00:09.428Z,27.00
2017-07-04T14:02:37.891Z,26.90
2017-07-04T14:05:06.583Z,27.00
2017-07-04T14:07:35.016Z,27.40
2017-07-04T14:10:03.467Z,27.30
2017-07-04T14:12:31.892Z,27.20
2017-07-04T14:15:00.032Z,27.20
2017-07-04T14:17:28.457Z,28.60
2017-07-04T14:19:57.670Z,29.50
2017-07-04T14:22:26.384Z,29.60
2017-07-04T14:24:54.817Z,29.50
2017-07-04T14:27:23.261Z,29.00
2017-07-04T14:29:52.750Z,28.70
2017-07-04T14:32:21.180Z,28.60
2017-07-04T14:34:49.635Z,28.40
2017-07-04T14:37:18.748Z,29.00
2017-07-04T14:39:47.455Z,29.30
2017-07-04T14:42:16.695Z,29.00
2017-07-04T14:44:46.594Z,28.20
2017-07-04T14:47:15.028Z,28.10
2017-07-04T14:49:43.512Z,27.50
2017-07-04T14:52:12.196Z,27.80
2017-07-04T14:54:40.275Z,27.80
2017-07-04T14:57:08.765Z,28.80
2017-07-04T14:59:37.184Z,28.80
2017-07-04T15:02:05.627Z,29.20
2017-07-04T15:04:34.088Z,28.60
2017-07-04T15:07:02.551Z,29.10
2017-07-04T15:09:30.987Z,29.60
2017-07-04T15:12:00.176Z,29.60
2017-07-04T15:14:28.619Z,29.60
2017-07-04T15:16:58.101Z,29.70
2017-07-04T15:19:26.567Z,29.90
2017-07-04T15:21:55.015Z,30.00
2017-07-04T15:24:23.446Z,30.80
2017-07-04T15:26:53.151Z,30.60
2017-07-04T15:29:21.996Z,30.10
2017-07-04T15:31:50.471Z,29.80
2017-07-04T15:34:19.695Z,30.30
2017-07-04T15:36:48.127Z,30.50
2017-07-04T15:39:16.980Z,29.80
2017-07-04T15:41:45.813Z,30.00
2017-07-04T15:44:14.653Z,30.10
2017-07-04T15:46:43.484Z,31.00
2017-07-04T15:49:11.913Z,30.80
2017-07-04T15:51:40.359Z,31.40
2017-07-04T15:54:08.720Z,30.90
2017-07-04T15:56:37.179Z,30.90
2017-07-04T15:59:05.880Z,30.70
2017-07-04T16:01:34.715Z,30.40
2017-07-04T16:04:03.543Z,30.00
2017-07-04T16:06:32.747Z,30.10
2017-07-04T16:09:01.291Z,30.10
2017-07-04T16:11:30.493Z,30.10
2017-07-04T16:13:59.351Z,30.90
2017-07-04T16:16:28.640Z,30.70
2017-07-04T16:18:57.823Z,30.80
2017-07-04T16:21:26.657Z,30.20
2017-07-04T16:23:55.851Z,29.80
2017-07-04T16:26:24.768Z,30.00
2017-07-04T16:28:54.062Z,29.90
2017-07-04T16:31:22.911Z,29.30
2017-07-04T16:33:51.747Z,28.60
2017-07-04T16:36:20.946Z,29.20
2017-07-04T16:38:49.797Z,29.00
2017-07-04T16:41:19.071Z,29.70
2017-07-04T16:43:47.900Z,29.90
2017-07-04T16:46:16.459Z,31.20
2017-07-04T16:48:44.905Z,29.70
2017-07-04T16:51:14.884Z,29.70
2017-07-04T16:53:44.411Z,29.80
2017-07-04T16:56:13.328Z,29.80
2017-07-04T16:58:43.292Z,29.30
2017-07-04T17:01:12.556Z,30.10
2017-07-04T17:03:41.756Z,30.50
2017-07-04T17:06:10.607Z,30.00
2017-07-04T17:08:39.099Z,30.00
2017-07-04T17:11:07.527Z,29.60
2017-07-04T17:13:36.859Z,29.90
2017-07-04T17:16:06.084Z,29.40
2017-07-04T17:18:35.337Z,29.80
2017-07-04T17:21:04.519Z,29.10
2017-07-04T17:23:32.984Z,28.90
2017-07-04T17:26:02.971Z,29.30
2017-07-04T17:28:32.191Z,29.20
2017-07-04T17:31:01.043Z,28.80
2017-07-04T17:33:29.906Z,28.60
2017-07-04T17:35:58.363Z,29.00
2017-07-04T17:38:26.836Z,29.00
2017-07-04T17:40:55.364Z,29.50
2017-07-04T17:43:23.871Z,29.80
2017-07-04T17:45:52.791Z,29.60
2017-07-04T17:48:21.257Z,29.60
2017-07-04T17:50:49.711Z,29.40
2017-07-04T17:53:18.171Z,28.80
2017-07-04T17:55:47.380Z,28.20
2017-07-04T17:58:16.063Z,28.10
2017-07-04T18:00:45.317Z,27.40
2017-07-04T18:03:13.749Z,27.00
2017-07-04T18:05:42.928Z,26.90
2017-07-04T18:08:11.815Z,27.00
2017-07-04T18:10:40.256Z,26.70
2017-07-04T18:13:08.676Z,26.20
2017-07-04T18:15:37.099Z,26.00
2017-07-04T18:18:05.529Z,26.10
2017-07-04T18:20:33.996Z,25.80
2017-07-04T18:23:02.429Z,25.60
2017-07-04T18:25:31.639Z,25.30
2017-07-04T18:28:01.153Z,25.30
2017-07-04T18:30:29.587Z,25.20
2017-07-04T18:32:58.053Z,24.90
2017-07-04T18:35:26.488Z,24.80
2017-07-04T18:37:54.931Z,24.90
2017-07-04T18:40:23.367Z,24.80
2017-07-04T18:42:51.801Z,24.70
2017-07-04T18:45:21.023Z,24.50
2017-07-04T18:47:49.477Z,24.50
2017-07-04T18:50:17.924Z,24.40
2017-07-04T18:52:46.352Z,24.30
2017-07-04T18:55:15.551Z,24.20
2017-07-04T18:57:44.740Z,24.10
2017-07-04T19:00:13.984Z,24.00
2017-07-04T19:02:42.444Z,24.00
2017-07-04T19:05:10.876Z,23.90
2017-07-04T19:07:39.340Z,23.80
2017-07-04T19:10:07.787Z,23.50
2017-07-04T19:12:37.071Z,23.20
2017-07-04T19:15:05.499Z,23.10
2017-07-04T19:17:33.958Z,22.70
2017-07-04T19:20:02.388Z,22.70
2017-07-04T19:22:30.819Z,22.50
2017-07-04T19:24:59.281Z,22.50
2017-07-04T19:27:27.723Z,22.30
2017-07-04T19:29:56.259Z,22.30
2017-07-04T19:32:24.748Z,22.30
2017-07-04T19:34:53.293Z,22.10
2017-07-04T19:37:21.740Z,22.00
2017-07-04T19:39:50.200Z,21.90
2017-07-04T19:42:18.651Z,22.00
2017-07-04T19:44:47.213Z,21.90
2017-07-04T19:47:15.756Z,21.80
2017-07-04T19:49:44.946Z,21.80
2017-07-04T19:52:13.396Z,21.70
2017-07-04T19:54:42.139Z,21.20
2017-07-04T19:57:10.606Z,20.90
2017-07-04T19:59:39.796Z,20.80
2017-07-04T20:02:09.142Z,20.70
2017-07-04T20:04:38.024Z,20.30
2017-07-04T20:07:07.295Z,20.20
2017-07-04T20:09:36.527Z,20.10
2017-07-04T20:12:05.751Z,20.30
2017-07-04T20:14:35.707Z,20.40
2017-07-04T20:17:04.956Z,20.40
2017-07-04T20:19:33.775Z,20.40
2017-07-04T20:22:02.626Z,20.30
2017-07-04T20:24:31.848Z,20.20
2017-07-04T20:27:01.136Z,20.20
2017-07-04T20:29:30.756Z,20.10
2017-07-04T20:31:59.954Z,19.90
2017-07-04T20:34:28.408Z,19.80
2017-07-04T20:36:57.649Z,19.80
2017-07-04T20:39:26.858Z,19.80
2017-07-04T20:41:56.055Z,19.70
2017-07-04T20:44:25.259Z,19.70
2017-07-04T20:46:54.125Z,19.50
2017-07-04T20:49:24.015Z,19.60
2017-07-04T20:51:52.855Z,19.50
2017-07-04T20:54:21.822Z,19.50
2017-07-04T20:56:51.048Z,19.30
2017-07-04T20:59:19.931Z,19.00
2017-07-04T21:01:49.825Z,19.00
2017-07-04T21:04:18.768Z,18.80
2017-07-04T21:06:47.662Z,18.90
2017-07-04T21:09:16.865Z,18.90
2017-07-04T21:11:45.720Z,18.80
2017-07-04T21:14:15.650Z,18.60
2017-07-04T21:16:44.868Z,18.40
2017-07-04T21:19:14.072Z,18.30
2017-07-04T21:21:42.915Z,18.10
2017-07-04T21:24:11.741Z,18.10
2017-07-04T21:26:40.979Z,18.30
2017-07-04T21:29:09.423Z,18.30
2017-07-04T21:31:38.256Z,18.40
2017-07-04T21:34:07.465Z,18.40
2017-07-04T21:36:36.329Z,18.40
2017-07-04T21:39:05.206Z,18.40
2017-07-04T21:41:34.414Z,18.30
2017-07-04T21:44:03.248Z,18.10
2017-07-04T21:46:31.704Z,17.90
2017-07-04T21:49:00.159Z,17.70
2017-07-04T21:51:29.364Z,18.00
2017-07-04T21:53:58.306Z,17.90
2017-07-04T21:56:27.164Z,17.90
2017-07-04T21:58:56.244Z,17.70
2017-07-04T22:01:25.101Z,17.80
2017-07-04T22:03:54.291Z,17.70
2017-07-04T22:06:23.125Z,17.70
2017-07-04T22:08:51.551Z,17.70
2017-07-04T22:11:20.005Z,17.50
2017-07-04T22:13:48.435Z,17.50
2017-07-04T22:16:16.888Z,17.30
2017-07-04T22:18:45.342Z,17.30
2017-07-04T22:21:13.775Z,17.40
2017-07-04T22:23:42.254Z,17.40
2017-07-04T22:26:10.676Z,17.40
2017-07-04T22:28:39.117Z,17.40
2017-07-04T22:31:07.816Z,17.10
2017-07-04T22:33:37.018Z,17.10
2017-07-04T22:36:06.335Z,17.00
2017-07-04T22:38:34.759Z,16.90
2017-07-04T22:41:03.225Z,17.20
2017-07-04T22:43:31.788Z,17.20
2017-07-04T22:46:00.264Z,17.20
2017-07-04T22:48:28.680Z,17.30
2017-07-04T22:50:57.112Z,17.30
2017-07-04T22:53:26.432Z,17.30
2017-07-04T22:55:54.862Z,17.20
2017-07-04T22:58:23.392Z,17.20
2017-07-04T23:00:52.608Z,17.20
2017-07-04T23:03:21.128Z,17.20
2017-07-04T23:05:49.538Z,17.20
2017-07-04T23:08:18.744Z,16.80
2017-07-04T23:10:47.948Z,16.70
2017-07-04T23:13:16.807Z,16.60
2017-07-04T23:15:46.020Z,16.80
2017-07-04T23:18:14.439Z,16.70
2017-07-04T23:20:42.875Z,16.70
2017-07-04T23:23:11.315Z,16.50
2017-07-04T23:25:39.753Z,16.50
2017-07-04T23:28:08.964Z,16.40
2017-07-04T23:30:38.159Z,16.30
2017-07-04T23:33:07.370Z,16.30
2017-07-04T23:35:35.800Z,16.30
2017-07-04T23:38:04.247Z,16.40
2017-07-04T23:40:32.671Z,16.30
2017-07-04T23:43:01.099Z,16.40
2017-07-04T23:45:29.697Z,16.40
2017-07-04T23:47:58.115Z,16.40
2017-07-04T23:50:26.557Z,16.40
2017-07-04T23:52:54.992Z,16.30
2017-07-04T23:55:23.636Z,16.30
2017-07-04T23:57:52.060Z,16.30
